sensor_id;sensor_type;location;lat;lon;timestamp;pressure;altitude;pressure_sealevel;temperature;humidity
63439;BME280;49567;48.958;8.294;2022-11-25T00:00:22;100274.81;;;5.87;75.63
63439;BME280;49567;48.958;8.294;2022-11-25T00:02:48;100276.47;;;5.88;75.30
63439;BME280;49567;48.958;8.294;2022-11-25T00:05:13;100270.84;;;5.90;75.72
63439;BME280;49567;48.958;8.294;2022-11-25T00:07:38;100273.53;;;5.90;76.08
63439;BME280;49567;48.958;8.294;2022-11-25T00:10:05;100275.44;;;5.89;76.01
63439;BME280;49567;48.958;8.294;2022-11-25T00:12:30;100274.81;;;5.87;76.14
63439;BME280;49567;48.958;8.294;2022-11-25T00:14:55;100274.38;;;5.90;75.93
63439;BME280;49567;48.958;8.294;2022-11-25T00:17:21;100272.06;;;5.94;76.00
63439;BME280;49567;48.958;8.294;2022-11-25T00:19:46;100267.06;;;5.97;75.87
63439;BME280;49567;48.958;8.294;2022-11-25T00:22:13;100260.44;;;6.00;76.02
63439;BME280;49567;48.958;8.294;2022-11-25T00:24:39;100271.56;;;6.03;76.30
63439;BME280;49567;48.958;8.294;2022-11-25T00:27:04;100269.50;;;6.05;76.37
63439;BME280;49567;48.958;8.294;2022-11-25T00:29:30;100276.06;;;6.09;76.54
63439;BME280;49567;48.958;8.294;2022-11-25T00:31:55;100275.88;;;6.11;76.48
63439;BME280;49567;48.958;8.294;2022-11-25T00:34:20;100268.81;;;6.10;76.40
63439;BME280;49567;48.958;8.294;2022-11-25T00:36:46;100278.06;;;5.96;77.24
63439;BME280;49567;48.958;8.294;2022-11-25T00:39:14;100268.16;;;5.90;77.44
63439;BME280;49567;48.958;8.294;2022-11-25T00:41:40;100267.13;;;5.91;77.79
63439;BME280;49567;48.958;8.294;2022-11-25T00:44:24;100272.00;;;6.00;77.35
63439;BME280;49567;48.958;8.294;2022-11-25T00:47:16;100271.75;;;6.08;77.58
63439;BME280;49567;48.958;8.294;2022-11-25T00:49:47;100272.97;;;6.12;77.15
63439;BME280;49567;48.958;8.294;2022-11-25T00:52:18;100271.69;;;6.15;77.12
63439;BME280;49567;48.958;8.294;2022-11-25T00:54:44;100260.50;;;6.18;77.30
63439;BME280;49567;48.958;8.294;2022-11-25T00:57:11;100263.19;;;6.18;77.21
63439;BME280;49567;48.958;8.294;2022-11-25T00:59:36;100259.88;;;6.16;77.24
63439;BME280;49567;48.958;8.294;2022-11-25T01:02:01;100272.72;;;6.14;77.40
63439;BME280;49567;48.958;8.294;2022-11-25T01:04:27;100273.16;;;5.80;76.93
63439;BME280;49567;48.958;8.294;2022-11-25T01:06:52;100273.63;;;5.76;78.34
63439;BME280;49567;48.958;8.294;2022-11-25T01:09:18;100289.28;;;5.86;77.65
63439;BME280;49567;48.958;8.294;2022-11-25T01:11:43;100284.47;;;5.95;77.61
63439;BME280;49567;48.958;8.294;2022-11-25T01:14:09;100290.00;;;6.00;77.38
63439;BME280;49567;48.958;8.294;2022-11-25T01:16:34;100299.31;;;6.04;77.20
63439;BME280;49567;48.958;8.294;2022-11-25T01:19:00;100302.19;;;6.09;77.08
63439;BME280;49567;48.958;8.294;2022-11-25T01:21:28;100301.34;;;6.08;77.01
63439;BME280;49567;48.958;8.294;2022-11-25T01:23:54;100309.19;;;6.10;76.88
63439;BME280;49567;48.958;8.294;2022-11-25T01:26:24;100308.97;;;6.11;77.41
63439;BME280;49567;48.958;8.294;2022-11-25T01:28:54;100313.69;;;6.16;76.63
63439;BME280;49567;48.958;8.294;2022-11-25T01:31:22;100314.06;;;6.19;76.56
63439;BME280;49567;48.958;8.294;2022-11-25T01:33:56;100316.94;;;6.24;76.75
63439;BME280;49567;48.958;8.294;2022-11-25T01:36:22;100312.97;;;6.27;76.97
63439;BME280;49567;48.958;8.294;2022-11-25T01:38:50;100308.81;;;6.31;77.40
63439;BME280;49567;48.958;8.294;2022-11-25T01:41:17;100311.06;;;6.34;77.32
63439;BME280;49567;48.958;8.294;2022-11-25T01:43:43;100309.56;;;6.38;77.62
63439;BME280;49567;48.958;8.294;2022-11-25T01:46:26;100315.34;;;6.42;77.28
63439;BME280;49567;48.958;8.294;2022-11-25T01:48:56;100310.75;;;6.42;77.86
63439;BME280;49567;48.958;8.294;2022-11-25T01:51:28;100295.44;;;6.43;77.54
63439;BME280;49567;48.958;8.294;2022-11-25T01:54:01;100301.88;;;6.42;77.32
63439;BME280;49567;48.958;8.294;2022-11-25T01:56:29;100314.50;;;6.41;78.10
63439;BME280;49567;48.958;8.294;2022-11-25T01:58:58;100316.38;;;6.41;77.76
63439;BME280;49567;48.958;8.294;2022-11-25T02:01:23;100305.38;;;6.42;77.93
63439;BME280;49567;48.958;8.294;2022-11-25T02:03:51;100300.63;;;6.44;77.95
63439;BME280;49567;48.958;8.294;2022-11-25T02:06:27;100295.06;;;6.39;77.88
63439;BME280;49567;48.958;8.294;2022-11-25T02:08:57;100302.16;;;6.34;78.29
63439;BME280;49567;48.958;8.294;2022-11-25T02:11:27;100306.94;;;6.32;78.08
63439;BME280;49567;48.958;8.294;2022-11-25T02:13:55;100304.47;;;6.30;78.19
63439;BME280;49567;48.958;8.294;2022-11-25T02:16:21;100307.00;;;6.25;78.13
63439;BME280;49567;48.958;8.294;2022-11-25T02:18:48;100301.25;;;6.21;77.90
63439;BME280;49567;48.958;8.294;2022-11-25T02:21:18;100297.53;;;6.16;77.82
63439;BME280;49567;48.958;8.294;2022-11-25T02:24:00;100292.00;;;6.11;77.46
63439;BME280;49567;48.958;8.294;2022-11-25T02:26:28;100287.28;;;6.06;77.76
63439;BME280;49567;48.958;8.294;2022-11-25T02:28:53;100287.28;;;6.06;78.02
63439;BME280;49567;48.958;8.294;2022-11-25T02:31:20;100284.38;;;6.08;77.72
63439;BME280;49567;48.958;8.294;2022-11-25T02:33:46;100284.38;;;6.08;77.37
63439;BME280;49567;48.958;8.294;2022-11-25T02:36:13;100288.94;;;6.07;77.40
63439;BME280;49567;48.958;8.294;2022-11-25T02:39:00;100283.41;;;6.02;77.60
63439;BME280;49567;48.958;8.294;2022-11-25T02:41:28;100272.84;;;6.01;77.78
63439;BME280;49567;48.958;8.294;2022-11-25T02:43:55;100285.66;;;6.05;77.57
63439;BME280;49567;48.958;8.294;2022-11-25T02:46:22;100278.16;;;6.07;78.07
63439;BME280;49567;48.958;8.294;2022-11-25T02:48:49;100271.75;;;6.08;77.83
63439;BME280;49567;48.958;8.294;2022-11-25T02:51:17;100271.31;;;6.11;78.12
63439;BME280;49567;48.958;8.294;2022-11-25T02:53:43;100276.25;;;6.14;77.77
63439;BME280;49567;48.958;8.294;2022-11-25T02:56:11;100274.97;;;6.17;77.64
63439;BME280;49567;48.958;8.294;2022-11-25T02:58:37;100265.50;;;6.14;77.68
63439;BME280;49567;48.958;8.294;2022-11-25T03:01:02;100255.75;;;6.13;77.73
63439;BME280;49567;48.958;8.294;2022-11-25T03:03:27;100247.69;;;6.13;78.09
63439;BME280;49567;48.958;8.294;2022-11-25T03:05:53;100255.75;;;6.13;77.94
63439;BME280;49567;48.958;8.294;2022-11-25T03:08:18;100264.91;;;6.12;77.97
63439;BME280;49567;48.958;8.294;2022-11-25T03:10:43;100269.44;;;6.12;77.81
63439;BME280;49567;48.958;8.294;2022-11-25T03:13:09;100272.59;;;6.09;77.87
63439;BME280;49567;48.958;8.294;2022-11-25T03:15:35;100271.13;;;6.06;78.27
63439;BME280;49567;48.958;8.294;2022-11-25T03:18:02;100269.28;;;6.07;78.19
63439;BME280;49567;48.958;8.294;2022-11-25T03:20:28;100266.38;;;6.08;78.18
63439;BME280;49567;48.958;8.294;2022-11-25T03:22:53;100276.91;;;6.10;78.29
63439;BME280;49567;48.958;8.294;2022-11-25T03:25:19;100255.16;;;6.11;78.45
63439;BME280;49567;48.958;8.294;2022-11-25T03:27:45;100266.75;;;6.12;78.10
63439;BME280;49567;48.958;8.294;2022-11-25T03:30:21;100264.06;;;6.12;78.29
63439;BME280;49567;48.958;8.294;2022-11-25T03:32:47;100270.03;;;6.14;78.36
63439;BME280;49567;48.958;8.294;2022-11-25T03:35:13;100264.66;;;6.14;78.13
63439;BME280;49567;48.958;8.294;2022-11-25T03:37:39;100269.22;;;6.13;78.49
63439;BME280;49567;48.958;8.294;2022-11-25T03:40:05;100270.03;;;6.14;78.18
63439;BME280;49567;48.958;8.294;2022-11-25T03:42:31;100265.69;;;6.13;78.73
63439;BME280;49567;48.958;8.294;2022-11-25T03:44:56;100265.31;;;6.09;78.78
63439;BME280;49567;48.958;8.294;2022-11-25T03:47:22;100263.69;;;6.08;78.65
63439;BME280;49567;48.958;8.294;2022-11-25T03:49:47;100267.41;;;6.07;78.33
63439;BME280;49567;48.958;8.294;2022-11-25T03:52:13;100263.88;;;6.07;78.70
63439;BME280;49567;48.958;8.294;2022-11-25T03:54:38;100257.91;;;6.05;78.82
63439;BME280;49567;48.958;8.294;2022-11-25T03:57:03;100253.56;;;6.04;78.94
63439;BME280;49567;48.958;8.294;2022-11-25T03:59:29;100253.38;;;6.05;78.67
63439;BME280;49567;48.958;8.294;2022-11-25T04:01:54;100260.81;;;6.03;78.68
63439;BME280;49567;48.958;8.294;2022-11-25T04:04:19;100255.03;;;6.00;78.66
63439;BME280;49567;48.958;8.294;2022-11-25T04:06:44;100242.88;;;5.97;78.80
63439;BME280;49567;48.958;8.294;2022-11-25T04:09:10;100244.53;;;5.98;78.60
63439;BME280;49567;48.958;8.294;2022-11-25T04:11:38;100241.22;;;5.96;78.56
63439;BME280;49567;48.958;8.294;2022-11-25T04:14:22;100244.34;;;5.93;78.41
63439;BME280;49567;48.958;8.294;2022-11-25T04:16:48;100249.97;;;5.92;78.82
63439;BME280;49567;48.958;8.294;2022-11-25T04:19:13;100250.78;;;5.92;78.73
63439;BME280;49567;48.958;8.294;2022-11-25T04:21:38;100247.72;;;5.89;78.39
63439;BME280;49567;48.958;8.294;2022-11-25T04:24:04;100243.56;;;5.86;78.69
63439;BME280;49567;48.958;8.294;2022-11-25T04:26:29;100232.03;;;5.86;78.60
63439;BME280;49567;48.958;8.294;2022-11-25T04:28:54;100231.16;;;5.85;78.26
63439;BME280;49567;48.958;8.294;2022-11-25T04:31:20;100229.50;;;5.84;77.99
63439;BME280;49567;48.958;8.294;2022-11-25T04:33:45;100233.66;;;5.80;78.43
63439;BME280;49567;48.958;8.294;2022-11-25T04:36:10;100236.97;;;5.82;78.60
63439;BME280;49567;48.958;8.294;2022-11-25T04:38:36;100230.97;;;5.80;78.31
63439;BME280;49567;48.958;8.294;2022-11-25T04:41:01;100238.84;;;5.82;78.44
63439;BME280;49567;48.958;8.294;2022-11-25T04:43:26;100230.78;;;5.82;78.27
63439;BME280;49567;48.958;8.294;2022-11-25T04:45:52;100238.22;;;5.80;78.13
63439;BME280;49567;48.958;8.294;2022-11-25T04:48:17;100237.63;;;5.78;77.83
63439;BME280;49567;48.958;8.294;2022-11-25T04:50:46;100240.31;;;5.78;78.06
63439;BME280;49567;48.958;8.294;2022-11-25T04:53:11;100240.31;;;5.78;77.93
63439;BME280;49567;48.958;8.294;2022-11-25T04:55:36;100243.84;;;5.78;78.14
63439;BME280;49567;48.958;8.294;2022-11-25T04:58:02;100251.06;;;5.78;78.08
63439;BME280;49567;48.958;8.294;2022-11-25T05:00:27;100252.94;;;5.77;78.20
63439;BME280;49567;48.958;8.294;2022-11-25T05:02:53;100251.06;;;5.78;78.40
63439;BME280;49567;48.958;8.294;2022-11-25T05:05:18;100258.31;;;5.77;78.53
63439;BME280;49567;48.958;8.294;2022-11-25T05:07:44;100260.41;;;5.75;78.56
63439;BME280;49567;48.958;8.294;2022-11-25T05:10:09;100265.97;;;5.73;78.71
63439;BME280;49567;48.958;8.294;2022-11-25T05:12:35;100275.31;;;5.71;78.82
63439;BME280;49567;48.958;8.294;2022-11-25T05:15:00;100278.44;;;5.68;78.77
63439;BME280;49567;48.958;8.294;2022-11-25T05:17:29;100277.63;;;5.67;79.24
63439;BME280;49567;48.958;8.294;2022-11-25T05:19:54;100276.59;;;5.68;78.76
63439;BME280;49567;48.958;8.294;2022-11-25T05:22:23;100278.44;;;5.68;78.88
63439;BME280;49567;48.958;8.294;2022-11-25T05:24:48;100288.59;;;5.66;78.89
63439;BME280;49567;48.958;8.294;2022-11-25T05:27:14;100288.22;;;5.62;78.93
63439;BME280;49567;48.958;8.294;2022-11-25T05:29:39;100299.56;;;5.64;79.14
63439;BME280;49567;48.958;8.294;2022-11-25T05:32:05;100288.81;;;5.64;78.76
63439;BME280;49567;48.958;8.294;2022-11-25T05:34:30;100287.97;;;5.64;78.92
63439;BME280;49567;48.958;8.294;2022-11-25T05:36:56;100290.66;;;5.64;79.21
63439;BME280;49567;48.958;8.294;2022-11-25T05:39:22;100296.28;;;5.62;79.05
63439;BME280;49567;48.958;8.294;2022-11-25T05:41:47;100298.72;;;5.64;78.91
63439;BME280;49567;48.958;8.294;2022-11-25T05:44:12;100303.97;;;5.52;79.18
63439;BME280;49567;48.958;8.294;2022-11-25T05:46:38;100308.72;;;5.50;79.82
63439;BME280;49567;48.958;8.294;2022-11-25T05:49:03;100315.34;;;5.54;79.65
63439;BME280;49567;48.958;8.294;2022-11-25T05:51:29;100322.97;;;5.57;79.43
63439;BME280;49567;48.958;8.294;2022-11-25T05:53:54;100316.31;;;5.60;79.26
63439;BME280;49567;48.958;8.294;2022-11-25T05:56:20;100317.16;;;5.60;79.40
63439;BME280;49567;48.958;8.294;2022-11-25T05:58:46;100320.66;;;5.61;79.63
63439;BME280;49567;48.958;8.294;2022-11-25T06:01:13;100321.34;;;5.56;79.50
63439;BME280;49567;48.958;8.294;2022-11-25T06:03:38;100327.97;;;5.47;79.52
63439;BME280;49567;48.958;8.294;2022-11-25T06:06:05;100331.28;;;5.49;79.40
63439;BME280;49567;48.958;8.294;2022-11-25T06:08:31;100321.75;;;5.53;79.28
63439;BME280;49567;48.958;8.294;2022-11-25T06:10:57;100330.81;;;5.59;78.71
63439;BME280;49567;48.958;8.294;2022-11-25T06:13:22;100334.78;;;5.56;79.01
63439;BME280;49567;48.958;8.294;2022-11-25T06:15:47;100338.66;;;5.60;78.76
63439;BME280;49567;48.958;8.294;2022-11-25T06:18:15;100343.59;;;5.63;78.74
63439;BME280;49567;48.958;8.294;2022-11-25T06:20:41;100348.78;;;5.65;78.78
63439;BME280;49567;48.958;8.294;2022-11-25T06:23:06;100350.44;;;5.66;78.60
63439;BME280;49567;48.958;8.294;2022-11-25T06:25:32;100348.94;;;5.70;79.07
63439;BME280;49567;48.958;8.294;2022-11-25T06:27:58;100341.66;;;5.77;78.77
63439;BME280;49567;48.958;8.294;2022-11-25T06:30:24;100348.25;;;5.81;78.60
63439;BME280;49567;48.958;8.294;2022-11-25T06:32:49;100344.09;;;5.85;78.82
63439;BME280;49567;48.958;8.294;2022-11-25T06:35:15;100351.78;;;5.88;78.87
63439;BME280;49567;48.958;8.294;2022-11-25T06:37:40;100362.28;;;5.90;78.79
63439;BME280;49567;48.958;8.294;2022-11-25T06:40:06;100363.75;;;5.92;78.88
63439;BME280;49567;48.958;8.294;2022-11-25T06:42:32;100379.44;;;5.95;79.02
63439;BME280;49567;48.958;8.294;2022-11-25T06:44:57;100387.09;;;5.98;79.08
63439;BME280;49567;48.958;8.294;2022-11-25T06:47:23;100377.34;;;5.97;79.12
63439;BME280;49567;48.958;8.294;2022-11-25T06:49:48;100375.66;;;6.03;79.28
63439;BME280;49567;48.958;8.294;2022-11-25T06:52:14;100371.50;;;6.07;79.35
63439;BME280;49567;48.958;8.294;2022-11-25T06:54:39;100372.91;;;6.09;79.55
63439;BME280;49567;48.958;8.294;2022-11-25T06:57:10;100379.53;;;6.13;79.34
63439;BME280;49567;48.958;8.294;2022-11-25T06:59:35;100383.28;;;6.12;79.58
63439;BME280;49567;48.958;8.294;2022-11-25T07:02:01;100375.59;;;6.09;79.91
63439;BME280;49567;48.958;8.294;2022-11-25T07:04:26;100382.25;;;6.07;79.88
63439;BME280;49567;48.958;8.294;2022-11-25T07:06:51;100382.22;;;6.13;79.67
63439;BME280;49567;48.958;8.294;2022-11-25T07:09:17;100390.09;;;6.15;79.94
63439;BME280;49567;48.958;8.294;2022-11-25T07:11:44;100388.13;;;5.97;80.16
63439;BME280;49567;48.958;8.294;2022-11-25T07:14:15;100385.91;;;5.88;80.90
63439;BME280;49567;48.958;8.294;2022-11-25T07:16:42;100378.44;;;5.90;80.53
63439;BME280;49567;48.958;8.294;2022-11-25T07:19:09;100374.56;;;5.86;80.77
63439;BME280;49567;48.958;8.294;2022-11-25T07:21:35;100368.94;;;5.81;80.96
63439;BME280;49567;48.958;8.294;2022-11-25T07:24:02;100371.81;;;5.92;80.83
63439;BME280;49567;48.958;8.294;2022-11-25T07:26:31;100374.03;;;6.02;80.23
63439;BME280;49567;48.958;8.294;2022-11-25T07:28:59;100370.47;;;6.08;80.05
63439;BME280;49567;48.958;8.294;2022-11-25T07:31:37;100375.41;;;6.11;80.40
63439;BME280;49567;48.958;8.294;2022-11-25T07:34:17;100378.06;;;6.17;80.25
63439;BME280;49567;48.958;8.294;2022-11-25T07:36:45;100388.16;;;6.22;80.14
63439;BME280;49567;48.958;8.294;2022-11-25T07:39:13;100397.03;;;6.22;80.31
63439;BME280;49567;48.958;8.294;2022-11-25T07:41:39;100402.63;;;6.28;80.65
63439;BME280;49567;48.958;8.294;2022-11-25T07:44:06;100399.03;;;6.34;80.25
63439;BME280;49567;48.958;8.294;2022-11-25T07:46:40;100410.78;;;6.39;80.18
63439;BME280;49567;48.958;8.294;2022-11-25T07:49:11;100418.81;;;6.46;80.07
63439;BME280;49567;48.958;8.294;2022-11-25T07:51:42;100426.25;;;6.50;80.19
63439;BME280;49567;48.958;8.294;2022-11-25T07:54:11;100415.03;;;6.53;80.35
63439;BME280;49567;48.958;8.294;2022-11-25T07:56:39;100423.50;;;6.57;80.77
63439;BME280;49567;48.958;8.294;2022-11-25T07:59:06;100421.41;;;6.59;80.87
63439;BME280;49567;48.958;8.294;2022-11-25T08:01:32;100424.28;;;6.64;80.53
63439;BME280;49567;48.958;8.294;2022-11-25T08:03:57;100424.22;;;6.70;80.25
63439;BME280;49567;48.958;8.294;2022-11-25T08:06:25;100414.22;;;6.77;80.40
63439;BME280;49567;48.958;8.294;2022-11-25T08:08:51;100422.25;;;6.84;80.37
63439;BME280;49567;48.958;8.294;2022-11-25T08:11:24;100421.34;;;6.90;80.17
63439;BME280;49567;48.958;8.294;2022-11-25T08:13:50;100426.09;;;6.95;80.25
63439;BME280;49567;48.958;8.294;2022-11-25T08:16:17;100431.03;;;6.98;80.52
63439;BME280;49567;48.958;8.294;2022-11-25T08:18:43;100425.19;;;7.01;80.37
63439;BME280;49567;48.958;8.294;2022-11-25T08:21:10;100416.09;;;6.95;80.46
63439;BME280;49567;48.958;8.294;2022-11-25T08:23:37;100415.44;;;7.00;80.71
63439;BME280;49567;48.958;8.294;2022-11-25T08:26:08;100419.56;;;7.02;81.20
63439;BME280;49567;48.958;8.294;2022-11-25T08:28:35;100424.50;;;7.05;81.26
63439;BME280;49567;48.958;8.294;2022-11-25T08:31:09;100426.16;;;7.06;81.15
63439;BME280;49567;48.958;8.294;2022-11-25T08:33:34;100425.72;;;7.09;81.26
63439;BME280;49567;48.958;8.294;2022-11-25T08:36:00;100437.00;;;7.18;80.77
63439;BME280;49567;48.958;8.294;2022-11-25T08:38:26;100427.44;;;7.22;80.96
63439;BME280;49567;48.958;8.294;2022-11-25T08:40:52;100435.69;;;7.27;80.83
63439;BME280;49567;48.958;8.294;2022-11-25T08:43:18;100434.41;;;7.29;81.08
63439;BME280;49567;48.958;8.294;2022-11-25T08:45:49;100441.41;;;7.37;81.11
63439;BME280;49567;48.958;8.294;2022-11-25T08:48:16;100444.47;;;7.41;81.27
63439;BME280;49567;48.958;8.294;2022-11-25T08:50:45;100444.59;;;7.46;80.93
63439;BME280;49567;48.958;8.294;2022-11-25T08:53:11;100441.31;;;7.44;81.12
63439;BME280;49567;48.958;8.294;2022-11-25T08:55:36;100443.19;;;7.43;81.55
63439;BME280;49567;48.958;8.294;2022-11-25T08:58:03;100456.66;;;7.43;81.07
63439;BME280;49567;48.958;8.294;2022-11-25T09:00:29;100462.28;;;7.42;81.03
63439;BME280;49567;48.958;8.294;2022-11-25T09:02:54;100478.81;;;7.45;81.19
63439;BME280;49567;48.958;8.294;2022-11-25T09:05:19;100477.53;;;7.48;81.49
63439;BME280;49567;48.958;8.294;2022-11-25T09:07:45;100484.59;;;7.49;81.51
63439;BME280;49567;48.958;8.294;2022-11-25T09:10:15;100487.53;;;7.47;82.11
63439;BME280;49567;48.958;8.294;2022-11-25T09:12:41;100483.19;;;7.46;82.00
63439;BME280;49567;48.958;8.294;2022-11-25T09:15:07;100498.31;;;7.47;82.21
63439;BME280;49567;48.958;8.294;2022-11-25T09:17:32;100502.66;;;7.48;82.04
63439;BME280;49567;48.958;8.294;2022-11-25T09:20:04;100493.06;;;7.52;81.89
63439;BME280;49567;48.958;8.294;2022-11-25T09:22:30;100494.72;;;7.53;82.63
63439;BME280;49567;48.958;8.294;2022-11-25T09:24:56;100499.66;;;7.56;82.31
63439;BME280;49567;48.958;8.294;2022-11-25T09:27:21;100494.66;;;7.60;82.24
63439;BME280;49567;48.958;8.294;2022-11-25T09:29:46;100498.09;;;7.67;82.33
63439;BME280;49567;48.958;8.294;2022-11-25T09:32:12;100498.63;;;7.75;82.22
63439;BME280;49567;48.958;8.294;2022-11-25T09:34:37;100499.81;;;7.79;82.53
63439;BME280;49567;48.958;8.294;2022-11-25T09:37:02;100506.84;;;7.80;82.56
63439;BME280;49567;48.958;8.294;2022-11-25T09:39:28;100510.16;;;7.82;82.27
63439;BME280;49567;48.958;8.294;2022-11-25T09:44:54;100510.28;;;7.88;82.91
63439;BME280;49567;48.958;8.294;2022-11-25T09:47:51;100510.91;;;7.90;82.97
63439;BME280;49567;48.958;8.294;2022-11-25T09:55:23;100532.78;;;8.00;82.95
63439;BME280;49567;48.958;8.294;2022-11-25T10:00:45;100534.50;;;8.12;83.34
63439;BME280;49567;48.958;8.294;2022-11-25T10:05:41;100532.00;;;8.11;83.19
63439;BME280;49567;48.958;8.294;2022-11-25T10:08:21;100540.47;;;8.14;83.67
63439;BME280;49567;48.958;8.294;2022-11-25T10:10:52;100544.25;;;8.13;83.84
63439;BME280;49567;48.958;8.294;2022-11-25T10:13:32;100541.97;;;8.10;84.01
63439;BME280;49567;48.958;8.294;2022-11-25T10:16:04;100548.00;;;8.12;83.99
63439;BME280;49567;48.958;8.294;2022-11-25T10:18:51;100535.91;;;8.15;83.78
63439;BME280;49567;48.958;8.294;2022-11-25T10:21:21;100541.31;;;8.15;84.45
63439;BME280;49567;48.958;8.294;2022-11-25T10:23:47;100551.53;;;8.13;84.09
63439;BME280;49567;48.958;8.294;2022-11-25T10:26:14;100543.53;;;8.18;84.20
63439;BME280;49567;48.958;8.294;2022-11-25T10:28:52;100553.69;;;8.22;84.00
63439;BME280;49567;48.958;8.294;2022-11-25T10:31:31;100552.25;;;8.20;84.54
63439;BME280;49567;48.958;8.294;2022-11-25T10:33:59;100555.31;;;8.23;84.39
63439;BME280;49567;48.958;8.294;2022-11-25T10:36:34;100563.19;;;8.25;84.23
63439;BME280;49567;48.958;8.294;2022-11-25T10:39:04;100561.06;;;8.27;84.80
63439;BME280;49567;48.958;8.294;2022-11-25T10:41:47;100558.19;;;8.28;84.35
63439;BME280;49567;48.958;8.294;2022-11-25T10:44:26;100562.75;;;8.28;84.84
63439;BME280;49567;48.958;8.294;2022-11-25T10:53:15;100569.50;;;8.37;84.73
63439;BME280;49567;48.958;8.294;2022-11-25T10:55:58;100568.44;;;8.38;84.58
63439;BME280;49567;48.958;8.294;2022-11-25T10:58:35;100573.41;;;8.41;84.79
63439;BME280;49567;48.958;8.294;2022-11-25T11:01:20;100573.09;;;8.49;84.77
63439;BME280;49567;48.958;8.294;2022-11-25T11:03:51;100576.97;;;8.53;84.55
63439;BME280;49567;48.958;8.294;2022-11-25T11:06:30;100573.00;;;8.56;84.60
63439;BME280;49567;48.958;8.294;2022-11-25T11:08:56;100578.53;;;8.61;84.63
63439;BME280;49567;48.958;8.294;2022-11-25T11:11:23;100570.56;;;8.66;84.86
63439;BME280;49567;48.958;8.294;2022-11-25T11:13:49;100575.72;;;8.67;84.79
63439;BME280;49567;48.958;8.294;2022-11-25T11:16:26;100575.63;;;8.74;85.22
63439;BME280;49567;48.958;8.294;2022-11-25T11:18:53;100575.31;;;8.82;85.01
63439;BME280;49567;48.958;8.294;2022-11-25T11:21:22;100573.69;;;8.93;84.60
63439;BME280;49567;48.958;8.294;2022-11-25T11:23:50;100574.56;;;9.05;84.70
63439;BME280;49567;48.958;8.294;2022-11-25T11:26:30;100584.44;;;9.11;84.41
63439;BME280;49567;48.958;8.294;2022-11-25T11:29:16;100586.00;;;9.18;84.36
63439;BME280;49567;48.958;8.294;2022-11-25T11:31:50;100579.66;;;9.24;84.52
63439;BME280;49567;48.958;8.294;2022-11-25T11:37:35;100588.69;;;9.30;84.45
63439;BME280;49567;48.958;8.294;2022-11-25T11:40:26;100587.75;;;9.36;84.31
63439;BME280;49567;48.958;8.294;2022-11-25T11:43:28;100586.81;;;9.42;83.96
63439;BME280;49567;48.958;8.294;2022-11-25T11:46:03;100586.03;;;9.42;84.00
63439;BME280;49567;48.958;8.294;2022-11-25T11:48:39;100587.78;;;9.48;84.21
63439;BME280;49567;48.958;8.294;2022-11-25T11:51:19;100593.31;;;9.53;84.19
63439;BME280;49567;48.958;8.294;2022-11-25T11:59:35;100597.41;;;9.55;84.06
63439;BME280;49567;48.958;8.294;2022-11-25T12:05:14;100598.72;;;9.53;84.54
63439;BME280;49567;48.958;8.294;2022-11-25T12:11:12;100603.19;;;9.59;84.73
63439;BME280;49567;48.958;8.294;2022-11-25T12:14:29;100608.13;;;9.62;84.87
63439;BME280;49567;48.958;8.294;2022-11-25T12:16:35;100612.16;;;9.71;84.62
63439;BME280;49567;48.958;8.294;2022-11-25T12:19:20;100608.59;;;9.82;84.26
63439;BME280;49567;48.958;8.294;2022-11-25T12:21:59;100612.00;;;9.89;84.38
63439;BME280;49567;48.958;8.294;2022-11-25T12:24:53;100607.66;;;10.00;84.07
63439;BME280;49567;48.958;8.294;2022-11-25T12:27:32;100620.84;;;10.19;83.58
63439;BME280;49567;48.958;8.294;2022-11-25T12:32:56;100616.75;;;10.57;82.67
63439;BME280;49567;48.958;8.294;2022-11-25T12:38:20;100616.63;;;10.52;82.70
63439;BME280;49567;48.958;8.294;2022-11-25T12:40:59;100626.22;;;10.31;82.98
63439;BME280;49567;48.958;8.294;2022-11-25T12:46:04;100637.06;;;10.08;84.16
63439;BME280;49567;48.958;8.294;2022-11-25T12:48:31;100645.09;;;10.14;84.22
63439;BME280;49567;48.958;8.294;2022-11-25T12:53:53;100656.75;;;10.26;83.66
63439;BME280;49567;48.958;8.294;2022-11-25T12:59:26;100662.75;;;10.28;83.85
63439;BME280;49567;48.958;8.294;2022-11-25T13:02:28;100682.19;;;10.25;83.88
63439;BME280;49567;48.958;8.294;2022-11-25T13:10:57;100672.03;;;10.32;83.81
63439;BME280;49567;48.958;8.294;2022-11-25T13:13:37;100674.75;;;10.32;83.70
63439;BME280;49567;48.958;8.294;2022-11-25T13:16:07;100676.41;;;10.33;83.67
63439;BME280;49567;48.958;8.294;2022-11-25T13:18:37;100671.22;;;10.32;83.86
63439;BME280;49567;48.958;8.294;2022-11-25T13:21:08;100671.81;;;10.34;83.68
63439;BME280;49567;48.958;8.294;2022-11-25T13:23:43;100673.09;;;10.31;83.86
63439;BME280;49567;48.958;8.294;2022-11-25T13:28:54;100679.94;;;10.34;84.13
63439;BME280;49567;48.958;8.294;2022-11-25T13:31:22;100682.53;;;10.40;83.64
63439;BME280;49567;48.958;8.294;2022-11-25T13:36:16;100685.56;;;10.44;83.73
63439;BME280;49567;48.958;8.294;2022-11-25T13:44:01;100695.47;;;10.50;83.69
63439;BME280;49567;48.958;8.294;2022-11-25T13:48:58;100700.19;;;10.43;83.57
63439;BME280;49567;48.958;8.294;2022-11-25T13:51:23;100709.63;;;10.40;83.72
63439;BME280;49567;48.958;8.294;2022-11-25T13:53:53;100711.97;;;10.37;83.81
63439;BME280;49567;48.958;8.294;2022-11-25T14:01:56;100730.22;;;10.30;84.04
63439;BME280;49567;48.958;8.294;2022-11-25T14:05:02;100732.34;;;10.28;83.78
63439;BME280;49567;48.958;8.294;2022-11-25T14:10:21;100737.66;;;10.23;83.88
63439;BME280;49567;48.958;8.294;2022-11-25T14:19:06;100757.66;;;10.22;83.68
63439;BME280;49567;48.958;8.294;2022-11-25T14:24:34;100759.06;;;10.24;83.72
63439;BME280;49567;48.958;8.294;2022-11-25T14:27:02;100760.97;;;10.24;83.58
63439;BME280;49567;48.958;8.294;2022-11-25T14:32:26;100767.66;;;10.21;83.34
63439;BME280;49567;48.958;8.294;2022-11-25T14:34:53;100767.66;;;10.21;83.67
63439;BME280;49567;48.958;8.294;2022-11-25T14:37:28;100767.91;;;10.20;83.57